Time;durP1;ratioP1;P1;durP2;ratioP2;P2;SDS_P1;SDS_P2;PMS_P1;PMS_P2;Temp;Humidity;BMP_temperature;BMP_pressure;BME280_temperature;BME280_humidity;BME280_pressure;Samples;Min_cycle;Max_cycle;Signal;HPM_P1;HPM_P2
2023/09/25 00:02:25;;;;;;;0.80;0.63;;;11.70;99.90;;;;;;5093759;28;20483;-82
2023/09/25 00:04:53;;;;;;;1.13;0.60;;;11.80;99.90;;;;;;5093800;28;20451;-81
2023/09/25 00:07:20;;;;;;;3.33;1.00;;;11.70;99.90;;;;;;5093775;28;20925;-82
2023/09/25 00:09:47;;;;;;;2.00;0.60;;;11.60;99.90;;;;;;5094299;28;20444;-81
2023/09/25 00:12:13;;;;;;;2.30;0.80;;;11.70;99.90;;;;;;5093491;28;20848;-82
2023/09/25 00:14:40;;;;;;;1.47;1.00;;;11.70;99.90;;;;;;5093517;28;20460;-82
2023/09/25 00:17:07;;;;;;;1.70;0.60;;;11.70;99.90;;;;;;5093639;28;20448;-82
2023/09/25 00:19:34;;;;;;;1.13;0.93;;;11.70;99.90;;;;;;5093562;28;20447;-82
2023/09/25 00:22:02;;;;;;;2.90;1.00;;;11.70;99.90;;;;;;5093492;28;20456;-81
2023/09/25 00:24:29;;;;;;;0.70;0.70;;;11.70;99.90;;;;;;5093513;28;20548;-82
2023/09/25 00:26:55;;;;;;;2.93;0.60;;;11.70;99.90;;;;;;5093486;28;20829;-82
2023/09/25 00:29:22;;;;;;;1.90;0.80;;;11.70;99.90;;;;;;5093428;28;20444;-82
2023/09/25 00:31:49;;;;;;;7.10;0.73;;;11.70;99.90;;;;;;5093255;28;20483;-82
2023/09/25 00:34:16;;;;;;;0.60;0.60;;;11.70;99.90;;;;;;5093080;28;20444;-82
2023/09/25 00:36:43;;;;;;;0.70;0.50;;;11.70;99.90;;;;;;5093370;28;20451;-82
2023/09/25 00:39:12;;;;;;;2.17;1.33;;;11.70;99.90;;;;;;5093542;28;20444;-82
2023/09/25 00:41:38;;;;;;;1.80;0.50;;;11.70;99.90;;;;;;5092993;28;20512;-82
2023/09/25 00:44:05;;;;;;;0.43;0.43;;;11.70;99.90;;;;;;5093357;28;20428;-82
2023/09/25 00:46:32;;;;;;;1.10;0.60;;;11.70;99.90;;;;;;5092988;28;20945;-82
2023/09/25 00:49:00;;;;;;;0.70;0.60;;;11.70;99.90;;;;;;5093271;28;20447;-82
2023/09/25 00:51:27;;;;;;;1.07;0.70;;;11.70;99.90;;;;;;5092857;28;20487;-82
2023/09/25 00:53:54;;;;;;;0.90;0.80;;;11.70;99.90;;;;;;5093261;28;20436;-82
2023/09/25 00:56:22;;;;;;;0.80;0.73;;;11.70;99.90;;;;;;5093513;28;20502;-82
2023/09/25 00:58:49;;;;;;;2.83;0.70;;;11.70;99.90;;;;;;5092897;28;20451;-82
2023/09/25 01:01:15;;;;;;;2.00;0.70;;;11.70;99.90;;;;;;5092756;28;20447;-82
2023/09/25 01:03:42;;;;;;;0.97;0.60;;;11.70;99.90;;;;;;5093170;28;20448;-82
2023/09/25 01:06:09;;;;;;;1.23;0.67;;;11.60;99.90;;;;;;5093101;28;20444;-82
2023/09/25 01:08:36;;;;;;;1.80;0.80;;;11.90;99.90;;;;;;5092831;28;20432;-82
2023/09/25 01:11:03;;;;;;;1.03;0.60;;;11.60;99.90;;;;;;5092726;28;20479;-82
2023/09/25 01:13:31;;;;;;;0.67;0.53;;;11.50;99.90;;;;;;5093218;28;20529;-82
2023/09/25 01:15:58;;;;;;;2.20;1.23;;;11.50;99.90;;;;;;5093004;28;20489;-82
2023/09/25 01:18:25;;;;;;;0.60;0.60;;;11.80;99.90;;;;;;5092993;28;20456;-82
2023/09/25 01:20:51;;;;;;;2.33;0.77;;;11.50;99.90;;;;;;5092980;28;20463;-82
2023/09/25 01:23:19;;;;;;;0.80;0.53;;;11.60;99.90;;;;;;5092633;28;20464;-82
2023/09/25 01:25:46;;;;;;;2.67;0.87;;;11.50;99.90;;;;;;5092951;28;20440;-82
2023/09/25 01:28:13;;;;;;;1.33;0.50;;;11.50;99.90;;;;;;5092897;28;20436;-82
2023/09/25 01:30:40;;;;;;;1.20;0.50;;;11.50;99.90;;;;;;5092758;28;20482;-82
2023/09/25 01:33:07;;;;;;;0.83;0.60;;;11.80;99.90;;;;;;5092560;28;20459;-82
2023/09/25 01:35:33;;;;;;;0.50;0.50;;;11.40;99.90;;;;;;5092869;28;20447;-82
2023/09/25 01:38:03;;;;;;;0.87;0.70;;;11.40;99.90;;;;;;5092493;28;20451;-82
2023/09/25 01:40:32;;;;;;;5.60;0.60;;;11.30;99.90;;;;;;5092555;28;20851;-82
2023/09/25 01:42:59;;;;;;;1.07;0.97;;;11.30;99.90;;;;;;5093626;28;20532;-82
2023/09/25 01:45:26;;;;;;;0.70;0.70;;;11.40;99.90;;;;;;5096659;28;20432;-82
2023/09/25 01:47:53;;;;;;;0.50;0.50;;;11.30;99.90;;;;;;5096352;28;20440;-82
2023/09/25 01:50:21;;;;;;;2.37;0.83;;;11.40;99.90;;;;;;5096427;28;20451;-82
2023/09/25 01:52:49;;;;;;;1.10;0.60;;;11.40;99.90;;;;;;5096187;28;20464;-82
2023/09/25 01:55:16;;;;;;;2.00;0.87;;;11.40;99.90;;;;;;5096250;28;20451;-82
2023/09/25 01:57:44;;;;;;;1.07;0.80;;;11.40;99.90;;;;;;5095921;28;20455;-82
2023/09/25 02:00:13;;;;;;;0.70;0.70;;;11.40;99.90;;;;;;5096146;28;20448;-82
2023/09/25 02:02:41;;;;;;;2.07;0.80;;;11.30;99.90;;;;;;5096018;28;20468;-82
2023/09/25 02:05:09;;;;;;;2.17;0.77;;;11.20;99.90;;;;;;5096065;28;20821;-82
2023/09/25 02:07:35;;;;;;;0.90;0.90;;;11.30;99.90;;;;;;5096136;28;20451;-82
2023/09/25 02:10:02;;;;;;;1.53;0.90;;;11.30;99.90;;;;;;5095974;28;20448;-82
2023/09/25 02:12:29;;;;;;;1.23;0.80;;;11.20;99.90;;;;;;5095727;28;20494;-82
2023/09/25 02:14:59;;;;;;;1.70;0.80;;;11.20;99.90;;;;;;5095827;28;20444;-82
2023/09/25 02:17:27;;;;;;;0.90;0.60;;;11.20;99.90;;;;;;5096101;28;20447;-82
2023/09/25 02:19:54;;;;;;;0.60;0.60;;;11.10;99.90;;;;;;5095799;28;20447;-82
2023/09/25 02:22:21;;;;;;;1.53;0.70;;;11.10;99.90;;;;;;5095921;28;20463;-82
2023/09/25 02:24:47;;;;;;;1.00;0.60;;;11.00;99.90;;;;;;5095655;28;20452;-82
2023/09/25 02:27:14;;;;;;;0.70;0.70;;;10.90;99.90;;;;;;5095664;28;20446;-82
2023/09/25 02:29:41;;;;;;;1.60;0.57;;;10.80;99.90;;;;;;5095646;28;20455;-81
2023/09/25 02:32:09;;;;;;;1.70;0.77;;;10.80;99.90;;;;;;5095432;28;20483;-82
2023/09/25 02:34:35;;;;;;;0.60;0.60;;;10.70;99.90;;;;;;5095496;28;20452;-82
2023/09/25 02:37:02;;;;;;;3.00;0.90;;;10.70;99.90;;;;;;5095149;28;20971;-82
2023/09/25 02:39:29;;;;;;;1.00;0.60;;;10.70;99.90;;;;;;5095365;28;20454;-82
2023/09/25 02:41:56;;;;;;;0.60;0.47;;;10.50;99.90;;;;;;5095033;28;20476;-82
2023/09/25 02:44:22;;;;;;;0.73;0.67;;;10.50;99.90;;;;;;5094985;28;20812;-82
2023/09/25 02:46:49;;;;;;;2.43;1.07;;;10.50;99.90;;;;;;5095266;28;20795;-82
2023/09/25 02:49:17;;;;;;;0.50;0.40;;;10.50;99.90;;;;;;5095191;28;20455;-82
2023/09/25 02:51:44;;;;;;;1.33;0.90;;;10.50;99.90;;;;;;5094975;28;20492;-82
2023/09/25 02:54:11;;;;;;;1.27;0.60;;;10.50;99.90;;;;;;5093718;28;20971;-82
2023/09/25 02:56:38;;;;;;;0.60;0.50;;;10.40;99.90;;;;;;5095016;28;20951;-81
2023/09/25 02:59:05;;;;;;;0.73;0.50;;;10.30;99.90;;;;;;5094767;28;20444;-82
2023/09/25 03:01:34;;;;;;;1.13;0.50;;;10.30;99.90;;;;;;5094938;28;20464;-82
2023/09/25 03:04:00;;;;;;;0.53;0.40;;;10.30;99.90;;;;;;5094915;28;20444;-82
2023/09/25 03:06:28;;;;;;;0.43;0.43;;;10.20;99.90;;;;;;5094859;28;20459;-81
2023/09/25 03:08:54;;;;;;;0.40;0.40;;;11.70;99.90;;;;;;5095015;28;20825;-81
2023/09/25 03:11:21;;;;;;;0.50;0.50;;;10.10;99.90;;;;;;5094446;28;20480;-81
2023/09/25 03:13:49;;;;;;;0.70;0.70;;;10.10;99.90;;;;;;5094780;28;20215;-81
2023/09/25 03:16:17;;;;;;;0.60;0.60;;;10.10;99.90;;;;;;5094769;28;20816;-82
2023/09/25 03:18:44;;;;;;;0.50;0.50;;;10.10;99.90;;;;;;5095507;28;20452;-82
2023/09/25 03:21:13;;;;;;;1.30;0.70;;;10.10;99.90;;;;;;5094256;28;20455;-82
2023/09/25 03:23:42;;;;;;;0.63;0.53;;;10.00;99.90;;;;;;5094752;28;20554;-82
2023/09/25 03:26:15;;;;;;;0.80;0.63;;;10.00;99.90;;;;;;5094565;28;20468;-82
2023/09/25 03:28:43;;;;;;;0.40;0.40;;;10.00;99.90;;;;;;5094185;28;20452;-81
2023/09/25 03:31:10;;;;;;;0.60;0.50;;;10.00;99.90;;;;;;5094260;28;20488;-81
2023/09/25 03:33:37;;;;;;;3.13;0.60;;;9.90;99.90;;;;;;5094368;28;20447;-82
2023/09/25 03:36:04;;;;;;;0.60;0.57;;;9.80;99.90;;;;;;5094329;28;20519;-82
2023/09/25 03:38:31;;;;;;;1.00;0.60;;;9.80;99.90;;;;;;5093989;28;20444;-82
2023/09/25 03:40:59;;;;;;;1.07;0.70;;;9.70;99.90;;;;;;5094027;28;20571;-82
2023/09/25 03:43:26;;;;;;;0.80;0.50;;;9.70;99.90;;;;;;5094177;28;20464;-82
2023/09/25 03:45:53;;;;;;;2.10;0.70;;;9.70;99.90;;;;;;5093887;28;20428;-82
2023/09/25 03:48:20;;;;;;;1.60;0.60;;;9.60;99.90;;;;;;5093883;28;20828;-82
2023/09/25 03:50:46;;;;;;;1.23;0.50;;;9.60;99.90;;;;;;5093950;28;20786;-82
2023/09/25 03:53:13;;;;;;;0.97;0.60;;;9.60;99.90;;;;;;5093951;28;20464;-82
2023/09/25 03:55:40;;;;;;;0.83;0.53;;;9.60;99.90;;;;;;5093837;28;20432;-82
2023/09/25 03:58:08;;;;;;;0.70;0.60;;;9.70;99.90;;;;;;5094155;28;20463;-82
2023/09/25 04:00:37;;;;;;;0.60;0.60;;;9.60;99.90;;;;;;5093758;28;20885;-82
2023/09/25 04:03:04;;;;;;;0.93;0.83;;;9.60;99.90;;;;;;5093769;28;20467;-82
2023/09/25 04:05:33;;;;;;;0.60;0.60;;;9.70;99.90;;;;;;5093463;28;20442;-82
2023/09/25 04:08:00;;;;;;;4.40;0.80;;;9.70;99.90;;;;;;5094301;28;20451;-81
2023/09/25 04:10:27;;;;;;;1.03;0.60;;;9.70;99.90;;;;;;5093757;28;20483;-81
2023/09/25 04:12:55;;;;;;;1.13;1.03;;;9.90;99.90;;;;;;5093239;28;20882;-82
2023/09/25 04:15:24;;;;;;;1.50;0.67;;;9.90;99.90;;;;;;5093661;28;20456;-82
2023/09/25 04:17:52;;;;;;;0.60;0.50;;;9.80;99.90;;;;;;5093670;28;20444;-82
2023/09/25 04:20:24;;;;;;;1.17;0.60;;;9.90;99.90;;;;;;5093616;28;20444;-81
2023/09/25 04:22:51;;;;;;;2.93;0.93;;;9.80;99.90;;;;;;5093540;28;20498;-82
2023/09/25 04:25:19;;;;;;;0.80;0.40;;;9.80;99.90;;;;;;5093485;28;20448;-82
2023/09/25 04:27:46;;;;;;;0.73;0.50;;;9.80;99.90;;;;;;5093710;28;20452;-82
2023/09/25 04:30:15;;;;;;;1.60;0.67;;;9.70;99.90;;;;;;5093470;28;20428;-82
2023/09/25 04:32:44;;;;;;;0.60;0.60;;;9.60;99.90;;;;;;5093319;28;20483;-82
2023/09/25 04:35:12;;;;;;;1.07;0.70;;;9.60;99.90;;;;;;5093107;28;20447;-82
2023/09/25 04:37:39;;;;;;;0.87;0.87;;;9.60;99.90;;;;;;5093084;28;20448;-82
2023/09/25 04:40:14;;;;;;;2.27;0.77;;;9.60;99.90;;;;;;5093366;28;20444;-82
2023/09/25 04:42:41;;;;;;;2.40;0.80;;;9.50;99.90;;;;;;5092893;28;20475;-81
2023/09/25 04:45:12;;;;;;;0.80;0.67;;;9.50;99.90;;;;;;5093312;28;20505;-82
2023/09/25 04:47:39;;;;;;;0.90;0.53;;;9.40;99.90;;;;;;5093353;28;20446;-82
2023/09/25 04:50:09;;;;;;;0.93;0.60;;;9.30;99.90;;;;;;5093313;28;20792;-82
2023/09/25 04:52:36;;;;;;;2.17;0.70;;;9.20;99.90;;;;;;5093340;28;20488;-81
2023/09/25 04:55:05;;;;;;;0.77;0.77;;;9.20;99.90;;;;;;5093225;28;20444;-82
2023/09/25 04:57:32;;;;;;;0.80;0.50;;;9.20;99.90;;;;;;5093273;28;20437;-82
2023/09/25 04:59:59;;;;;;;0.90;0.90;;;9.20;99.90;;;;;;5093157;28;20448;-81
2023/09/25 05:02:26;;;;;;;0.50;0.50;;;10.10;99.90;;;;;;5092882;28;20463;-82
2023/09/25 05:04:52;;;;;;;1.53;1.23;;;9.00;99.90;;;;;;5092786;28;20790;-82
2023/09/25 05:07:21;;;;;;;0.53;0.53;;;9.00;99.90;;;;;;5093171;28;20443;-82
2023/09/25 05:09:47;;;;;;;2.20;0.67;;;9.00;99.90;;;;;;5093068;28;20445;-81
2023/09/25 05:12:14;;;;;;;0.50;0.50;;;9.00;99.90;;;;;;5092939;28;20842;-82
2023/09/25 05:14:41;;;;;;;0.60;0.50;;;9.00;99.90;;;;;;5093062;28;20451;-81
2023/09/25 05:17:08;;;;;;;0.50;0.50;;;8.90;99.90;;;;;;5093113;28;20452;-81
2023/09/25 05:19:34;;;;;;;1.30;0.63;;;9.00;99.90;;;;;;5096941;28;20814;-82
2023/09/25 05:22:01;;;;;;;2.73;0.90;;;9.00;99.90;;;;;;5096533;28;20972;-81
2023/09/25 05:24:29;;;;;;;0.67;0.67;;;9.00;99.90;;;;;;5096970;28;20444;-81
2023/09/25 05:26:56;;;;;;;1.10;0.50;;;9.00;99.90;;;;;;5096701;28;20432;-82
2023/09/25 05:29:22;;;;;;;0.80;0.50;;;9.00;99.90;;;;;;5096445;28;20447;-81
2023/09/25 05:31:49;;;;;;;1.40;0.50;;;9.00;99.90;;;;;;5096561;28;20494;-81
2023/09/25 05:34:16;;;;;;;1.00;1.00;;;9.00;99.90;;;;;;5096890;28;20448;-82
2023/09/25 05:36:43;;;;;;;0.80;0.70;;;9.00;99.90;;;;;;5096895;28;20439;-82
2023/09/25 05:39:10;;;;;;;4.30;0.80;;;9.00;99.90;;;;;;5096432;28;20450;-82
2023/09/25 05:41:38;;;;;;;3.03;0.83;;;9.00;99.90;;;;;;5096095;28;20976;-82
2023/09/25 05:44:06;;;;;;;0.90;0.80;;;9.00;99.90;;;;;;5096509;28;20444;-82
2023/09/25 05:46:32;;;;;;;0.87;0.70;;;9.00;99.90;;;;;;5096561;28;20455;-81
2023/09/25 05:48:59;;;;;;;0.80;0.80;;;9.50;99.90;;;;;;5096413;28;20436;-82
2023/09/25 05:51:26;;;;;;;1.90;1.00;;;9.00;99.90;;;;;;5095840;28;20981;-81
2023/09/25 05:53:53;;;;;;;2.40;0.47;;;9.00;99.90;;;;;;5096357;28;20448;-81
2023/09/25 05:56:20;;;;;;;1.70;1.13;;;9.10;99.90;;;;;;5096295;28;20443;-81
2023/09/25 05:58:48;;;;;;;0.53;0.53;;;9.00;99.90;;;;;;5096002;28;20952;-82
2023/09/25 06:01:15;;;;;;;4.00;1.23;;;9.10;99.90;;;;;;5096223;28;20450;-81
2023/09/25 06:03:41;;;;;;;5.57;1.23;;;9.10;99.90;;;;;;5096314;28;20443;-82
2023/09/25 06:06:08;;;;;;;1.97;1.00;;;9.20;99.90;;;;;;5096078;28;20469;-82
2023/09/25 06:08:35;;;;;;;1.27;0.70;;;9.30;99.90;;;;;;5095994;28;20444;-82
2023/09/25 06:11:02;;;;;;;1.23;0.60;;;9.60;99.90;;;;;;5095658;28;20447;-82
2023/09/25 06:13:30;;;;;;;1.60;0.90;;;9.90;99.90;;;;;;5095465;28;20988;-82
2023/09/25 06:15:58;;;;;;;1.00;0.63;;;10.20;99.90;;;;;;5095798;28;20811;-82
2023/09/25 06:18:25;;;;;;;2.30;1.27;;;10.40;99.90;;;;;;5095843;28;20482;-82
2023/09/25 06:20:52;;;;;;;1.37;0.80;;;10.60;99.90;;;;;;5095808;28;20451;-82
2023/09/25 06:23:19;;;;;;;0.60;0.60;;;10.60;99.90;;;;;;5095389;28;20976;-81
2023/09/25 06:25:45;;;;;;;1.93;0.73;;;10.60;99.90;;;;;;5095433;28;20439;-82
2023/09/25 06:28:14;;;;;;;1.47;0.70;;;10.50;99.90;;;;;;5095473;28;20455;-82
2023/09/25 06:30:41;;;;;;;11.07;1.03;;;10.40;99.90;;;;;;5095614;28;20444;-82
2023/09/25 06:33:09;;;;;;;1.10;0.93;;;10.40;99.90;;;;;;5095394;28;20471;-82
2023/09/25 06:35:36;;;;;;;0.70;0.70;;;10.60;99.90;;;;;;5095549;28;20493;-82
2023/09/25 06:38:03;;;;;;;0.87;0.60;;;10.30;99.90;;;;;;5095436;28;20451;-82
2023/09/25 06:40:30;;;;;;;1.87;0.80;;;10.40;99.90;;;;;;5095570;28;20455;-82
2023/09/25 06:42:57;;;;;;;1.70;0.80;;;10.40;99.90;;;;;;5094863;28;20687;-82
2023/09/25 06:45:24;;;;;;;0.60;0.60;;;10.50;99.90;;;;;;5095229;28;20441;-82
2023/09/25 06:47:51;;;;;;;0.80;0.80;;;10.50;99.90;;;;;;5095478;28;20444;-82
2023/09/25 06:50:19;;;;;;;2.07;1.30;;;10.60;99.90;;;;;;5095220;28;20809;-82
2023/09/25 06:52:46;;;;;;;1.10;1.00;;;10.70;99.90;;;;;;5095147;28;20575;-82
2023/09/25 06:55:13;;;;;;;1.27;0.90;;;10.70;99.90;;;;;;5095155;28;20444;-82
2023/09/25 06:57:40;;;;;;;0.90;0.67;;;10.80;99.90;;;;;;5095058;28;20444;-82
2023/09/25 07:00:09;;;;;;;0.70;0.60;;;10.90;99.90;;;;;;5094932;28;20448;-82
2023/09/25 07:02:36;;;;;;;1.40;1.30;;;11.00;99.90;;;;;;5094881;28;20471;-82
2023/09/25 07:05:03;;;;;;;5.17;1.23;;;11.10;99.90;;;;;;5094904;28;20534;-81
2023/09/25 07:07:31;;;;;;;1.47;1.17;;;11.20;99.90;;;;;;5095028;28;20451;-81
2023/09/25 07:09:58;;;;;;;1.20;1.10;;;11.40;99.90;;;;;;5094502;28;20960;-81
2023/09/25 07:12:25;;;;;;;1.10;1.00;;;11.40;99.90;;;;;;5094639;28;20483;-82
2023/09/25 07:14:56;;;;;;;1.10;0.70;;;11.50;99.90;;;;;;5094725;28;20447;-81
2023/09/25 07:17:22;;;;;;;3.13;1.70;;;11.50;99.90;;;;;;5094758;28;20432;-82
2023/09/25 07:19:51;;;;;;;0.93;0.80;;;11.60;99.90;;;;;;5094690;28;20799;-82
2023/09/25 07:22:18;;;;;;;2.00;0.97;;;11.70;99.90;;;;;;5094281;28;20494;-82
2023/09/25 07:24:46;;;;;;;3.67;0.90;;;11.90;99.90;;;;;;5094538;28;20539;-82
2023/09/25 07:27:13;;;;;;;2.00;1.10;;;11.80;99.90;;;;;;5094212;28;20948;-82
2023/09/25 07:29:42;;;;;;;1.27;0.60;;;11.90;99.90;;;;;;5094434;28;20440;-82
2023/09/25 07:32:09;;;;;;;0.93;0.90;;;12.00;99.90;;;;;;5094226;28;20460;-82
2023/09/25 07:34:36;;;;;;;1.03;1.03;;;12.10;99.90;;;;;;5094082;28;20448;-82
2023/09/25 07:37:05;;;;;;;0.80;0.80;;;12.20;99.90;;;;;;5094342;28;20444;-81
2023/09/25 07:39:33;;;;;;;1.27;0.90;;;12.30;99.90;;;;;;5094277;28;20800;-82
2023/09/25 07:42:01;;;;;;;1.77;1.00;;;12.40;99.90;;;;;;5093253;28;20525;-82
2023/09/25 07:44:28;;;;;;;4.83;1.50;;;12.40;99.90;;;;;;5094200;28;20432;-81
2023/09/25 07:46:57;;;;;;;1.63;1.10;;;12.50;99.90;;;;;;5093822;28;20451;-81
2023/09/25 07:49:23;;;;;;;2.70;1.10;;;12.60;99.90;;;;;;5093817;28;20936;-82
2023/09/25 07:51:51;;;;;;;8.80;1.50;;;12.80;99.90;;;;;;5093669;28;20818;-82
2023/09/25 07:54:19;;;;;;;1.53;1.07;;;12.90;99.90;;;;;;5093966;28;20492;-82
2023/09/25 07:56:46;;;;;;;1.20;0.73;;;13.10;99.90;;;;;;5093622;28;20448;-82
2023/09/25 07:59:14;;;;;;;1.37;0.90;;;13.20;99.90;;;;;;5093865;28;20522;-82
2023/09/25 08:01:42;;;;;;;1.13;1.03;;;13.40;99.90;;;;;;5093793;28;20463;-82
2023/09/25 08:04:09;;;;;;;1.43;1.00;;;13.50;99.90;;;;;;5093558;28;20959;-81
2023/09/25 08:06:36;;;;;;;1.47;1.00;;;13.70;99.90;;;;;;5093822;28;20432;-81
2023/09/25 08:09:04;;;;;;;1.07;0.90;;;13.70;99.90;;;;;;5093465;28;20444;-82
2023/09/25 08:11:31;;;;;;;4.73;1.50;;;14.00;99.90;;;;;;5093375;28;20468;-82
2023/09/25 08:13:58;;;;;;;1.33;0.80;;;14.30;99.90;;;;;;5093660;28;20491;-82
2023/09/25 08:16:27;;;;;;;2.90;0.70;;;14.50;99.90;;;;;;5093303;28;20817;-82
2023/09/25 08:18:53;;;;;;;1.20;0.50;;;14.70;99.90;;;;;;5093765;28;20455;-80
2023/09/25 08:21:20;;;;;;;2.03;0.63;;;15.00;99.90;;;;;;5093574;28;20451;-82
2023/09/25 08:23:47;;;;;;;1.43;0.80;;;15.20;99.90;;;;;;5093783;28;20440;-81
2023/09/25 08:26:16;;;;;;;0.93;0.87;;;15.30;99.90;;;;;;5093571;28;20448;-82
2023/09/25 08:28:43;;;;;;;0.60;0.60;;;15.50;99.90;;;;;;5093534;28;20455;-82
2023/09/25 08:31:09;;;;;;;0.60;0.60;;;15.70;99.90;;;;;;5093417;28;20493;-82
2023/09/25 08:33:39;;;;;;;1.17;0.80;;;15.90;99.90;;;;;;5093041;28;20840;-81
2023/09/25 08:36:10;;;;;;;0.80;0.80;;;16.00;99.90;;;;;;5093723;28;21002;-82
2023/09/25 08:38:37;;;;;;;3.37;0.67;;;16.10;99.90;;;;;;5093169;28;20428;-82
2023/09/25 08:41:05;;;;;;;1.13;0.87;;;16.20;99.90;;;;;;5093072;28;20552;-82
2023/09/25 08:43:33;;;;;;;1.33;0.87;;;16.30;99.90;;;;;;5092836;28;20976;-81
2023/09/25 08:46:01;;;;;;;1.00;0.80;;;16.50;99.90;;;;;;5093079;28;20454;-82
2023/09/25 08:48:27;;;;;;;1.80;0.90;;;16.50;99.90;;;;;;5093301;28;20455;-82
2023/09/25 08:50:55;;;;;;;0.70;0.60;;;16.70;99.90;;;;;;5093273;28;20443;-82
2023/09/25 08:53:22;;;;;;;1.77;0.50;;;16.90;99.90;;;;;;5095359;28;20487;-82
2023/09/25 08:55:52;;;;;;;0.57;0.57;;;17.10;99.90;;;;;;5097473;28;20440;-82
2023/09/25 08:58:19;;;;;;;2.50;0.90;;;17.30;99.90;;;;;;5097434;28;20452;-82
2023/09/25 09:00:46;;;;;;;1.83;0.97;;;17.60;99.90;;;;;;5097035;28;20440;-82
2023/09/25 09:03:12;;;;;;;0.80;0.63;;;17.80;99.90;;;;;;5097235;28;20456;-81
2023/09/25 09:05:39;;;;;;;0.60;0.50;;;18.00;99.90;;;;;;5096976;28;20979;-82
2023/09/25 09:08:08;;;;;;;2.10;1.03;;;18.30;99.90;;;;;;5097193;28;20438;-82
2023/09/25 09:10:36;;;;;;;1.03;0.70;;;18.70;99.90;;;;;;5096847;28;20501;-81
2023/09/25 09:13:08;;;;;;;1.30;0.70;;;19.00;99.90;;;;;;5096986;28;20487;-81
2023/09/25 09:15:35;;;;;;;1.40;0.80;;;19.30;99.90;;;;;;5097164;28;20467;-82
2023/09/25 09:18:19;;;;;;;0.90;0.90;;;19.50;99.90;;;;;;5096931;28;20435;-82
2023/09/25 09:20:46;;;;;;;0.83;0.60;;;19.50;99.90;;;;;;5096999;28;20478;-82
2023/09/25 09:23:14;;;;;;;2.30;0.87;;;19.60;99.90;;;;;;5096829;28;20463;-82
2023/09/25 09:25:41;;;;;;;0.70;0.57;;;19.80;99.90;;;;;;5096602;28;20990;-82
2023/09/25 09:28:08;;;;;;;3.70;0.90;;;19.80;99.90;;;;;;5096472;28;20971;-81
2023/09/25 09:30:35;;;;;;;0.50;0.50;;;19.70;99.90;;;;;;5096789;28;20448;-82
2023/09/25 09:33:02;;;;;;;1.13;0.77;;;19.80;99.90;;;;;;5096527;28;20483;-82
2023/09/25 09:35:30;;;;;;;2.63;0.57;;;19.80;99.90;;;;;;5096720;28;20476;-82
2023/09/25 09:37:58;;;;;;;3.47;0.97;;;19.90;99.90;;;;;;5096356;28;20451;-82
2023/09/25 09:40:27;;;;;;;2.30;0.90;;;20.10;99.90;;;;;;5096562;28;20435;-82
2023/09/25 09:42:54;;;;;;;0.90;0.60;;;20.40;99.90;;;;;;5095982;28;20480;-83
2023/09/25 09:45:22;;;;;;;0.73;0.60;;;20.70;99.90;;;;;;5096449;28;20447;-82
2023/09/25 09:47:50;;;;;;;0.90;0.90;;;20.90;99.90;;;;;;5096223;28;20432;-82
2023/09/25 09:50:21;;;;;;;1.17;0.70;;;21.00;99.90;;;;;;5096470;28;20471;-82
2023/09/25 09:52:48;;;;;;;0.73;0.73;;;21.00;99.90;;;;;;5096350;28;20459;-82
2023/09/25 09:55:17;;;;;;;1.07;0.83;;;20.70;99.90;;;;;;5096295;28;20447;-82
2023/09/25 09:57:45;;;;;;;2.20;0.50;;;20.60;99.90;;;;;;5095918;28;20798;-81
2023/09/25 10:00:13;;;;;;;6.33;0.80;;;20.40;99.90;;;;;;5096418;28;20850;-82
2023/09/25 10:02:41;;;;;;;1.30;0.90;;;20.40;99.90;;;;;;5095863;28;20448;-84
2023/09/25 10:05:11;;;;;;;1.37;0.70;;;20.40;99.90;;;;;;5095601;28;20936;-82
2023/09/25 10:08:06;;;;;;;1.10;0.63;;;20.40;99.90;;;;;;5095724;28;20822;-82
2023/09/25 10:10:33;;;;;;;0.43;0.43;;;20.40;99.90;;;;;;5096111;28;20444;-82
2023/09/25 10:13:01;;;;;;;0.80;0.57;;;20.40;99.90;;;;;;5095922;28;20466;-82
2023/09/25 10:15:29;;;;;;;1.00;0.77;;;20.50;99.90;;;;;;5096183;28;20440;-82
2023/09/25 10:17:56;;;;;;;0.70;0.70;;;20.50;99.90;;;;;;5095576;28;20971;-82
2023/09/25 10:20:34;;;;;;;0.77;0.63;;;20.60;99.90;;;;;;5095579;28;20448;-82
2023/09/25 10:23:05;;;;;;;0.90;0.60;;;20.70;99.90;;;;;;5095755;28;20474;-82
2023/09/25 10:25:33;;;;;;;0.70;0.53;;;20.80;99.90;;;;;;5095804;28;20431;-82
2023/09/25 10:28:01;;;;;;;1.10;0.73;;;20.90;99.90;;;;;;5095986;28;20447;-82
2023/09/25 10:30:28;;;;;;;1.73;0.70;;;21.00;99.90;;;;;;5095723;28;20452;-82
2023/09/25 10:32:56;;;;;;;0.60;0.60;;;21.60;99.90;;;;;;5095492;28;20466;-82
2023/09/25 10:35:58;;;;;;;1.57;0.70;;;22.40;99.90;;;;;;5095395;28;20448;-82
2023/09/25 10:38:28;;;;;;;0.80;0.50;;;22.90;99.30;;;;;;5095535;28;20443;-82
2023/09/25 10:40:56;;;;;;;0.60;0.50;;;23.30;98.70;;;;;;5095386;28;20431;-81
2023/09/25 10:43:25;;;;;;;1.83;0.97;;;23.10;98.10;;;;;;5095447;28;20463;-81
2023/09/25 10:45:53;;;;;;;0.83;0.80;;;23.20;97.70;;;;;;5095047;28;20940;-82
2023/09/25 10:48:20;;;;;;;0.70;0.70;;;23.30;97.70;;;;;;5095299;28;20447;-82
2023/09/25 10:50:49;;;;;;;0.77;0.77;;;23.50;97.30;;;;;;5094935;28;20932;-81
2023/09/25 10:53:16;;;;;;;0.60;0.50;;;23.60;96.90;;;;;;5093714;28;20983;-81
2023/09/25 10:55:43;;;;;;;0.60;0.60;;;23.20;96.40;;;;;;5093380;28;20427;-80
2023/09/25 10:58:12;;;;;;;0.67;0.67;;;22.50;96.40;;;;;;5094324;28;20424;-81
2023/09/25 11:00:42;;;;;;;1.37;0.80;;;22.10;97.40;;;;;;5094000;28;20948;-81
2023/09/25 11:03:10;;;;;;;2.73;0.70;;;21.80;98.00;;;;;;5093887;28;20976;-81
2023/09/25 11:05:38;;;;;;;1.13;0.93;;;21.40;99.20;;;;;;5094183;28;20470;-81
2023/09/25 11:08:09;;;;;;;0.70;0.70;;;21.10;99.20;;;;;;5093795;28;20427;-82
2023/09/25 11:10:38;;;;;;;1.03;0.77;;;20.90;99.90;;;;;;5093836;28;20527;-82
2023/09/25 11:13:05;;;;;;;1.03;1.03;;;20.80;99.90;;;;;;5093687;28;21002;-82
2023/09/25 11:15:36;;;;;;;1.00;0.60;;;20.80;99.90;;;;;;5092760;28;20955;-81
2023/09/25 11:18:07;;;;;;;0.60;0.60;;;21.00;99.90;;;;;;5091192;28;20473;-81
2023/09/25 11:20:34;;;;;;;1.40;0.70;;;20.80;99.90;;;;;;5094058;28;20455;-82
2023/09/25 11:23:05;;;;;;;4.63;1.40;;;20.80;99.90;;;;;;5093546;28;20983;-82
2023/09/25 11:25:40;;;;;;;1.80;0.70;;;20.70;99.90;;;;;;5093752;28;20439;-81
2023/09/25 11:28:07;;;;;;;1.80;1.13;;;20.60;99.90;;;;;;5091534;28;20917;-81
2023/09/25 11:30:34;;;;;;;1.00;0.77;;;20.50;99.90;;;;;;5093730;28;20446;-82
2023/09/25 11:33:06;;;;;;;0.80;0.80;;;20.60;99.90;;;;;;5090611;28;20461;-82
2023/09/25 11:35:37;;;;;;;1.13;0.90;;;20.50;99.90;;;;;;5093365;28;20511;-82
2023/09/25 11:38:11;;;;;;;1.90;0.77;;;20.50;99.90;;;;;;5091222;28;20467;-82
2023/09/25 11:40:39;;;;;;;0.80;0.73;;;20.40;99.90;;;;;;5093539;28;20427;-81
2023/09/25 11:43:06;;;;;;;1.50;0.90;;;20.40;99.90;;;;;;5091044;28;20532;-81
2023/09/25 11:45:33;;;;;;;1.10;0.70;;;20.40;99.90;;;;;;5093083;28;20446;-81
2023/09/25 11:48:01;;;;;;;1.17;0.70;;;20.30;99.90;;;;;;5093414;28;20432;-81
2023/09/25 11:50:29;;;;;;;1.00;0.90;;;20.20;99.70;;;;;;5093019;28;20861;-82
2023/09/25 11:52:56;;;;;;;2.03;0.63;;;20.20;99.90;;;;;;5093122;28;20463;-82
2023/09/25 11:55:23;;;;;;;1.17;0.70;;;20.20;99.90;;;;;;5093274;28;20479;-82
2023/09/25 11:57:50;;;;;;;0.70;0.70;;;20.20;99.90;;;;;;5092939;28;20947;-82
2023/09/25 12:00:18;;;;;;;0.80;0.70;;;20.20;99.90;;;;;;5093117;28;20476;-82
2023/09/25 12:02:46;;;;;;;0.60;0.60;;;20.20;99.90;;;;;;5093216;28;20551;-81
2023/09/25 12:05:13;;;;;;;0.70;0.70;;;20.10;99.90;;;;;;5092975;28;20440;-81
2023/09/25 12:07:43;;;;;;;0.80;0.80;;;20.00;99.90;;;;;;5092931;28;20447;-81
2023/09/25 12:10:12;;;;;;;1.20;1.10;;;20.00;99.90;;;;;;5093156;28;20429;-81
2023/09/25 12:12:40;;;;;;;1.80;1.00;;;19.80;99.90;;;;;;5092832;28;20459;-81
2023/09/25 12:15:08;;;;;;;1.47;0.80;;;19.70;99.90;;;;;;5093016;28;20472;-81
2023/09/25 12:17:36;;;;;;;1.40;0.73;;;19.60;99.90;;;;;;5093079;28;20443;-82
2023/09/25 12:20:11;;;;;;;1.03;0.70;;;19.50;99.90;;;;;;5090200;28;20455;-81
2023/09/25 12:22:39;;;;;;;1.00;0.90;;;19.40;99.90;;;;;;5092830;28;20451;-81
2023/09/25 12:25:11;;;;;;;0.70;0.70;;;19.30;99.90;;;;;;5093053;28;20468;-81
2023/09/25 12:27:38;;;;;;;0.70;0.70;;;19.20;99.90;;;;;;5092405;28;20432;-81
2023/09/25 12:30:07;;;;;;;1.90;1.10;;;19.20;99.90;;;;;;5092873;28;20439;-81
2023/09/25 12:32:34;;;;;;;1.30;0.93;;;19.10;99.90;;;;;;5092716;28;20464;-82
2023/09/25 12:35:01;;;;;;;1.97;0.90;;;19.10;99.90;;;;;;5092218;28;21022;-80
2023/09/25 12:37:28;;;;;;;0.70;0.60;;;19.00;99.90;;;;;;5092771;28;20805;-82
2023/09/25 12:39:55;;;;;;;0.80;0.80;;;19.40;99.90;;;;;;5092800;28;20850;-81
2023/09/25 12:42:23;;;;;;;1.33;0.97;;;19.00;99.90;;;;;;5089415;28;21011;-82
2023/09/25 12:44:50;;;;;;;1.57;1.00;;;19.00;99.90;;;;;;5092663;28;20802;-81
2023/09/25 12:47:18;;;;;;;1.00;1.00;;;19.20;99.90;;;;;;5092301;28;20961;-82
2023/09/25 12:49:45;;;;;;;0.60;0.60;;;19.00;99.90;;;;;;5092299;28;20955;-81
2023/09/25 12:52:12;;;;;;;0.97;0.80;;;19.10;99.90;;;;;;5092451;28;20481;-81